Time;durP1;ratioP1;P1;durP2;ratioP2;P2;SDS_P1;SDS_P2;PMS_P1;PMS_P2;Temp;Humidity;BMP_temperature;BMP_pressure;BME280_temperature;BME280_humidity;BME280_pressure;Samples;Min_cycle;Max_cycle;Signal;HPM_P1;HPM_P2
2022/01/19 00:01:36;;;;;;;25.27;13.77;;;;;;;2.42;92.93;102616.69;4982043;28;20093;-83
2022/01/19 00:04:03;;;;;;;23.50;13.80;;;;;;;2.44;92.73;102617.47;4981501;28;20046;-82
2022/01/19 00:06:30;;;;;;;22.02;12.98;;;;;;;2.36;92.85;102616.91;4981405;28;20133;-82
2022/01/19 00:08:58;;;;;;;19.50;12.85;;;;;;;2.32;93.46;102606.69;4982175;28;20110;-81
2022/01/19 00:11:24;;;;;;;21.23;12.80;;;;;;;2.42;93.26;102611.50;4981244;28;20125;-82
2022/01/19 00:13:53;;;;;;;20.83;13.60;;;;;;;2.27;93.15;102610.34;4981107;28;20085;-81
2022/01/19 00:16:20;;;;;;;22.63;13.25;;;;;;;2.25;92.91;102594.06;4981297;28;20082;-83
2022/01/19 00:18:47;;;;;;;18.00;13.93;;;;;;;2.31;93.11;102579.19;4980304;28;20175;-83
2022/01/19 00:21:15;;;;;;;17.42;11.23;;;;;;;2.33;93.31;102587.72;4980208;28;20050;-81
2022/01/19 00:23:41;;;;;;;18.77;12.05;;;;;;;2.36;93.21;102580.75;4979992;28;20180;-81
2022/01/19 00:26:08;;;;;;;17.17;12.45;;;;;;;2.33;93.53;102559.31;4981425;28;20493;-82
2022/01/19 00:28:35;;;;;;;16.00;11.88;;;;;;;2.26;93.64;102547.50;4980807;28;20464;-81
2022/01/19 00:31:03;;;;;;;17.55;10.88;;;;;;;2.25;93.71;102527.72;4979190;28;20489;-80
2022/01/19 00:33:30;;;;;;;18.75;11.10;;;;;;;2.21;93.96;102515.81;4978929;28;20153;-80
2022/01/19 00:35:56;;;;;;;15.10;10.45;;;;;;;2.26;93.96;102497.56;4978957;28;20476;-82
2022/01/19 00:38:23;;;;;;;16.65;10.73;;;;;;;2.20;94.22;102503.81;4978905;28;20082;-81
2022/01/19 00:40:50;;;;;;;14.38;10.80;;;;;;;2.25;93.75;102509.66;4978773;28;20419;-81
2022/01/19 00:43:17;;;;;;;18.80;11.07;;;;;;;2.18;94.51;102510.78;4977821;28;20205;-82
2022/01/19 00:45:45;;;;;;;20.42;11.77;;;;;;;2.22;94.12;102517.50;4979476;28;20085;-82
2022/01/19 00:48:13;;;;;;;16.80;11.25;;;;;;;2.26;94.19;102516.50;4979261;28;20050;-83
2022/01/19 00:50:40;;;;;;;16.05;11.55;;;;;;;2.29;93.84;102520.72;4980500;28;20086;-82
2022/01/19 00:53:07;;;;;;;17.50;11.80;;;;;;;2.25;93.39;102516.56;4979135;28;20097;-81
2022/01/19 00:55:33;;;;;;;14.05;10.70;;;;;;;2.21;93.34;102541.66;4978499;28;20047;-79
2022/01/19 00:58:00;;;;;;;19.15;11.90;;;;;;;2.24;93.62;102546.72;4978372;28;20479;-82
2022/01/19 01:00:28;;;;;;;18.13;11.13;;;;;;;2.20;93.42;102536.53;4978545;28;20102;-83
2022/01/19 01:02:55;;;;;;;17.42;10.77;;;;;;;2.18;93.37;102544.34;4978756;28;20082;-82
2022/01/19 01:05:24;;;;;;;13.95;10.65;;;;;;;2.00;94.21;102538.09;4978469;28;20472;-79
2022/01/19 01:07:51;;;;;;;18.00;10.57;;;;;;;1.86;94.37;102534.34;4978325;28;20261;-79
2022/01/19 01:10:21;;;;;;;15.27;10.27;;;;;;;1.71;94.52;102540.03;4978439;28;20046;-81
2022/01/19 01:12:50;;;;;;;17.52;11.27;;;;;;;1.55;94.80;102535.38;4978744;28;20101;-82
2022/01/19 01:18:20;;;;;;;15.98;11.05;;;;;;;1.38;95.62;102555.75;4977881;28;20130;-82
2022/01/19 01:20:51;;;;;;;17.55;11.25;;;;;;;1.31;95.52;102555.09;4978678;28;20051;-81
2022/01/19 01:23:19;;;;;;;15.82;11.13;;;;;;;1.23;95.47;102551.06;4978319;28;20055;-82
2022/01/19 01:28:16;;;;;;;20.35;12.30;;;;;;;1.18;96.14;102542.63;4985720;28;20047;-85
2022/01/19 01:30:44;;;;;;;16.98;11.98;;;;;;;1.27;96.37;102532.03;4996609;28;20522;-85
2022/01/19 01:33:11;;;;;;;18.70;12.15;;;;;;;1.37;96.61;102523.09;4997523;28;20461;-85
2022/01/19 01:35:42;;;;;;;17.10;12.02;;;;;;;1.52;96.40;102524.31;4981140;28;20097;-84
2022/01/19 01:38:16;;;;;;;18.08;12.30;;;;;;;1.62;96.46;102523.94;4977861;28;20062;-84
2022/01/19 01:40:42;;;;;;;18.60;11.98;;;;;;;1.74;96.21;102508.94;4977062;28;20055;-83
2022/01/19 01:43:10;;;;;;;18.05;12.45;;;;;;;1.83;95.74;102509.47;4977588;28;20054;-84
2022/01/19 01:45:40;;;;;;;18.00;11.90;;;;;;;1.90;95.83;102510.06;4977555;28;20204;-84
2022/01/19 01:48:11;;;;;;;19.42;12.15;;;;;;;1.93;95.38;102512.53;4977416;28;20051;-84
2022/01/19 01:53:29;;;;;;;15.82;11.32;;;;;;;2.23;93.42;102521.78;4978114;28;20057;-83
2022/01/19 01:56:00;;;;;;;15.35;10.63;;;;;;;2.33;93.17;102525.72;4978008;28;20483;-85
2022/01/19 01:58:29;;;;;;;16.95;12.02;;;;;;;2.39;92.83;102524.63;4975654;28;20137;-83
2022/01/19 02:00:59;;;;;;;17.02;11.70;;;;;;;2.46;93.18;102531.25;4985245;28;20047;-83
2022/01/19 02:03:27;;;;;;;14.65;11.20;;;;;;;2.42;93.33;102497.81;4979260;28;20051;-83
2022/01/19 02:08:41;;;;;;;15.63;10.98;;;;;;;2.57;92.38;102497.25;4963112;28;20047;-83
2022/01/19 02:11:35;;;;;;;16.17;11.05;;;;;;;2.62;92.58;102478.06;4979545;28;20142;-84
2022/01/19 02:22:33;;;;;;;19.35;13.95;;;;;;;2.85;91.98;102464.22;4985336;28;20109;-85
2022/01/19 02:24:59;;;;;;;20.50;14.68;;;;;;;2.86;92.15;102465.91;4985199;28;20059;-85
2022/01/19 02:41:33;;;;;;;26.45;18.15;;;;;;;2.82;92.22;102415.25;4988013;28;20598;-83
2022/01/19 02:44:00;;;;;;;29.92;18.55;;;;;;;2.75;92.24;102416.41;4985443;28;20046;-84
2022/01/19 02:46:41;;;;;;;23.70;18.42;;;;;;;2.84;92.28;102403.06;4983064;28;20063;-84
2022/01/19 02:49:15;;;;;;;27.15;18.55;;;;;;;2.93;91.67;102407.03;4982732;28;20047;-84
2022/01/19 02:51:49;;;;;;;24.38;19.02;;;;;;;2.91;92.24;102414.00;4982336;28;20161;-84
2022/01/19 02:54:19;;;;;;;25.40;18.67;;;;;;;2.88;91.96;102393.44;4981552;28;20157;-84
2022/01/19 02:57:02;;;;;;;24.38;18.83;;;;;;;2.77;91.66;102362.06;4982133;28;20062;-84
2022/01/19 03:00:01;;;;;;;24.20;18.25;;;;;;;2.91;92.19;102383.81;4980974;28;20062;-85
2022/01/19 03:11:05;;;;;;;23.55;19.00;;;;;;;2.60;92.95;102323.97;4987364;28;20081;-85
2022/01/19 03:13:40;;;;;;;22.42;17.92;;;;;;;2.70;92.49;102337.38;4988400;28;20055;-84
2022/01/19 03:16:07;;;;;;;26.50;19.42;;;;;;;2.68;93.17;102350.34;4987709;28;20047;-85
2022/01/19 03:18:34;;;;;;;25.08;18.35;;;;;;;2.63;93.00;102352.28;4981906;28;20058;-85
2022/01/19 03:21:01;;;;;;;22.70;17.58;;;;;;;2.62;92.75;102340.25;4980208;28;20097;-86
2022/01/19 03:23:48;;;;;;;24.30;18.35;;;;;;;2.59;93.08;102337.81;4978534;28;20078;-86
2022/01/19 03:26:15;;;;;;;21.17;17.05;;;;;;;2.85;92.15;102363.38;4978820;28;20054;-85
2022/01/19 03:28:45;;;;;;;26.02;18.38;;;;;;;2.77;92.43;102349.97;4979376;28;20105;-85
2022/01/19 03:31:13;;;;;;;22.38;17.20;;;;;;;2.79;92.39;102363.69;4981859;28;20059;-85
2022/01/19 03:33:45;;;;;;;21.40;17.55;;;;;;;2.71;92.61;102345.06;4980236;28;20427;-85
2022/01/19 03:36:12;;;;;;;21.70;16.38;;;;;;;2.88;92.21;102345.16;4980072;28;20046;-85
2022/01/19 03:38:45;;;;;;;25.75;16.95;;;;;;;2.92;92.26;102338.13;4980557;28;20066;-85
2022/01/19 03:41:24;;;;;;;21.05;16.58;;;;;;;2.82;91.68;102321.34;4981213;28;20047;-85
2022/01/19 03:44:00;;;;;;;20.58;15.77;;;;;;;2.83;91.66;102328.19;4982290;28;20050;-84
2022/01/19 03:46:53;;;;;;;19.55;15.63;;;;;;;2.59;91.94;102314.53;4981918;28;20089;-84
2022/01/19 03:49:33;;;;;;;18.35;15.15;;;;;;;2.84;90.92;102346.19;4979828;28;20046;-84
2022/01/19 03:52:13;;;;;;;19.20;14.00;;;;;;;2.56;91.57;102305.16;4980610;28;20050;-84
2022/01/19 03:54:55;;;;;;;14.93;12.65;;;;;;;2.76;90.84;102327.59;4980512;28;20054;-84
2022/01/19 03:57:27;;;;;;;15.05;12.25;;;;;;;2.82;90.94;102314.44;4980597;28;20057;-85
2022/01/19 03:59:59;;;;;;;17.48;13.43;;;;;;;2.86;91.18;102299.59;4980205;28;20054;-84
2022/01/19 04:02:52;;;;;;;17.10;12.48;;;;;;;2.82;90.97;102293.75;4979752;28;20055;-84
2022/01/19 04:05:38;;;;;;;18.52;13.68;;;;;;;2.69;91.26;102268.47;4979154;28;20380;-85
2022/01/19 04:08:07;;;;;;;19.27;13.32;;;;;;;3.00;90.96;102289.50;4981114;28;20081;-85
2022/01/19 04:10:39;;;;;;;16.67;12.85;;;;;;;3.06;89.83;102278.06;4982772;28;20126;-84
2022/01/19 04:13:22;;;;;;;17.40;13.18;;;;;;;3.04;89.36;102270.38;4980427;28;20063;-85
2022/01/19 04:15:58;;;;;;;14.50;11.55;;;;;;;3.05;89.54;102271.19;4980519;28;20142;-85
2022/01/19 04:18:51;;;;;;;15.20;11.63;;;;;;;3.33;88.51;102287.16;4980178;28;20054;-85
2022/01/19 04:21:22;;;;;;;14.93;11.27;;;;;;;3.24;88.92;102272.06;4978639;28;20062;-83
2022/01/19 04:24:14;;;;;;;13.95;11.88;;;;;;;3.22;88.81;102269.56;4977895;28;20137;-86
2022/01/19 04:27:33;;;;;;;13.95;11.32;;;;;;;3.29;88.96;102280.47;4976406;28;20075;-87
2022/01/19 04:33:06;;;;;;;15.13;11.45;;;;;;;3.25;89.66;102294.44;4984815;28;20097;-86
2022/01/19 04:35:44;;;;;;;14.85;11.38;;;;;;;3.13;89.60;102264.78;4979796;28;20062;-85
2022/01/19 05:03:49;;;;;;;13.07;10.60;;;;;;;3.22;89.88;102263.53;4981510;28;20090;-85
2022/01/19 05:06:21;;;;;;;12.27;10.00;;;;;;;3.15;89.93;102246.63;4981633;28;20070;-85
2022/01/19 05:09:07;;;;;;;11.75;9.95;;;;;;;3.25;90.04;102253.91;4981767;28;20051;-84
2022/01/19 05:14:19;;;;;;;11.35;9.60;;;;;;;3.18;90.06;102213.69;4980211;28;20060;-86
2022/01/19 05:16:47;;;;;;;14.93;10.68;;;;;;;3.29;88.87;102220.97;4980600;28;20537;-85
2022/01/19 05:19:14;;;;;;;11.35;9.45;;;;;;;3.30;88.54;102226.06;4981759;28;20109;-85
2022/01/19 05:21:41;;;;;;;12.23;9.70;;;;;;;3.31;88.29;102212.19;4980676;28;20050;-85
2022/01/19 05:24:08;;;;;;;11.98;9.20;;;;;;;3.32;87.73;102213.03;4979571;28;20093;-84
2022/01/19 05:26:37;;;;;;;10.18;9.07;;;;;;;3.37;87.15;102203.31;4979659;28;20047;-85
2022/01/19 05:29:05;;;;;;;10.25;9.00;;;;;;;3.51;87.68;102219.03;4981922;28;20050;-85
2022/01/19 05:31:34;;;;;;;11.10;8.73;;;;;;;3.49;86.85;102218.28;4981313;28;20098;-83
2022/01/19 05:34:05;;;;;;;12.25;8.82;;;;;;;3.50;87.31;102214.78;4979607;28;20113;-84
2022/01/19 05:36:38;;;;;;;10.82;8.50;;;;;;;3.42;87.24;102187.56;4979124;28;20070;-83
2022/01/19 05:39:11;;;;;;;10.80;8.93;;;;;;;3.46;87.37;102208.06;4978447;28;20452;-83
2022/01/19 05:41:38;;;;;;;;;;;;;;;3.59;86.84;102211.75;4980648;28;20109;-85
2022/01/19 05:44:06;;;;;;;12.98;9.63;;;;;;;3.48;87.87;102203.66;4982809;28;19928;-86
2022/01/19 05:46:34;;;;;;;12.13;9.70;;;;;;;3.48;88.01;102214.00;4981861;28;20078;-85
2022/01/19 05:49:05;;;;;;;13.70;9.77;;;;;;;3.34;87.91;102183.59;4981039;28;20188;-83
2022/01/19 05:51:33;;;;;;;12.65;9.85;;;;;;;3.34;87.91;102185.34;4980611;28;20047;-83
2022/01/19 05:54:04;;;;;;;12.07;9.45;;;;;;;3.65;87.15;102201.13;4982431;28;20051;-83
2022/01/19 05:56:38;;;;;;;16.67;9.43;;;;;;;3.61;87.07;102189.22;4981747;28;20046;-84
2022/01/19 05:59:04;;;;;;;12.95;9.13;;;;;;;3.47;86.90;102183.03;4981162;28;20093;-84
2022/01/19 06:01:31;;;;;;;14.30;9.80;;;;;;;3.49;86.74;102188.97;4981509;28;20057;-85
2022/01/19 06:04:03;;;;;;;11.80;8.70;;;;;;;3.36;86.72;102159.41;4980551;28;20133;-85
2022/01/19 06:06:39;;;;;;;10.63;9.18;;;;;;;3.35;86.47;102155.97;4982757;28;20051;-84
2022/01/19 06:10:01;;;;;;;12.70;8.48;;;;;;;3.40;86.15;102154.00;4985172;28;20051;-85
2022/01/19 06:12:38;;;;;;;12.35;8.90;;;;;;;3.41;86.23;102149.66;4984464;28;20073;-84
2022/01/19 06:15:36;;;;;;;11.15;8.38;;;;;;;3.48;86.23;102164.84;4984684;28;20050;-83
2022/01/19 06:18:08;;;;;;;9.68;8.15;;;;;;;3.46;86.36;102151.13;4984431;28;20062;-83
2022/01/19 06:20:46;;;;;;;10.50;7.72;;;;;;;3.65;86.97;102174.41;4985475;28;20051;-83
2022/01/19 06:23:25;;;;;;;9.57;8.43;;;;;;;3.44;86.47;102158.13;4986544;28;20066;-85
2022/01/19 06:25:53;;;;;;;9.70;8.25;;;;;;;3.56;86.14;102159.31;4986633;28;20046;-83
2022/01/19 06:28:20;;;;;;;11.02;9.27;;;;;;;3.54;86.01;102156.78;4986510;28;20051;-82
2022/01/19 06:30:46;;;;;;;14.20;8.82;;;;;;;3.70;85.47;102159.47;4982294;28;20118;-83
2022/01/19 06:33:34;;;;;;;10.02;8.80;;;;;;;3.57;85.54;102138.53;4982441;28;20391;-83
2022/01/19 06:36:20;;;;;;;10.98;9.60;;;;;;;3.35;85.70;102119.75;4979821;28;20054;-84
2022/01/19 06:39:01;;;;;;;12.98;9.52;;;;;;;3.47;86.48;102141.63;4978378;28;20480;-83
2022/01/19 06:41:35;;;;;;;14.02;9.40;;;;;;;3.59;85.72;102136.69;4976240;28;20055;-84
2022/01/19 06:44:07;;;;;;;15.57;9.77;;;;;;;3.50;85.19;102119.03;4976713;28;20054;-83
2022/01/19 06:46:41;;;;;;;12.77;10.05;;;;;;;3.54;86.02;102114.53;4976880;28;20074;-84
2022/01/19 06:49:19;;;;;;;11.35;9.40;;;;;;;3.42;85.24;102099.59;4978527;28;20054;-84
2022/01/19 06:51:59;;;;;;;10.50;9.15;;;;;;;3.41;85.50;102103.94;4980467;28;20051;-82
2022/01/19 06:54:53;;;;;;;11.85;10.35;;;;;;;3.61;85.59;102127.09;4980925;28;20118;-84
2022/01/19 07:01:09;;;;;;;10.13;8.48;;;;;;;3.57;85.72;102125.59;4979998;28;19930;-84
2022/01/19 07:03:50;;;;;;;;;;;;;;;3.63;85.58;102125.28;4982244;28;20186;-83
2022/01/19 07:06:19;;;;;;;11.20;9.77;;;;;;;3.47;86.19;102118.31;4981874;28;19921;-83
2022/01/19 07:09:03;;;;;;;10.98;9.52;;;;;;;3.55;85.68;102111.03;4991002;28;20058;-82
2022/01/19 07:12:03;;;;;;;17.08;14.52;;;;;;;3.34;86.59;102087.03;4992175;28;20089;-83
2022/01/19 07:14:56;;;;;;;15.10;11.80;;;;;;;3.38;86.55;102104.09;4980147;28;20055;-83
2022/01/19 07:17:22;;;;;;;12.38;9.57;;;;;;;3.33;86.69;102109.47;4945740;29;20052;-83
2022/01/19 07:22:35;;;;;;;13.40;11.20;;;;;;;3.41;86.79;102113.44;4943991;29;20653;-82
2022/01/19 07:25:02;;;;;;;14.20;10.52;;;;;;;3.63;86.60;102135.63;4950164;28;20075;-83
2022/01/19 07:27:30;;;;;;;11.73;10.48;;;;;;;3.55;86.57;102117.06;4998427;23;20046;-80
2022/01/19 07:29:57;;;;;;;13.02;10.48;;;;;;;3.55;87.62;102127.41;4988347;28;20112;-82
2022/01/19 07:32:40;;;;;;;12.63;11.00;;;;;;;3.57;87.50;102119.56;5004507;28;20050;-82
2022/01/19 07:35:24;;;;;;;17.23;11.82;;;;;;;3.51;87.98;102114.69;5003550;28;20050;-83
2022/01/19 07:37:55;;;;;;;17.95;12.50;;;;;;;3.49;88.55;102101.81;5002856;28;20418;-82
2022/01/19 07:40:29;;;;;;;17.08;12.60;;;;;;;3.57;88.26;102120.41;5003188;28;20050;-80
2022/01/19 07:43:21;;;;;;;16.90;13.10;;;;;;;3.38;88.23;102088.56;4962386;28;20107;-79
2022/01/19 07:49:00;;;;;;;17.25;13.02;;;;;;;3.26;88.13;102090.00;4979845;28;20499;-80
2022/01/19 07:51:45;;;;;;;17.40;13.40;;;;;;;3.23;88.13;102084.13;4980666;28;20058;-79
2022/01/19 07:54:16;;;;;;;17.55;13.18;;;;;;;3.40;88.44;102106.59;4964092;28;20046;-80
2022/01/19 07:56:44;;;;;;;17.77;12.85;;;;;;;3.20;87.96;102073.94;4980896;28;20106;-81
2022/01/19 07:59:25;;;;;;;19.23;12.52;;;;;;;3.17;87.89;102085.28;4983826;28;20138;-82
2022/01/19 08:02:12;;;;;;;17.17;13.52;;;;;;;3.25;87.49;102074.56;4969053;28;20411;-82
2022/01/19 08:04:48;;;;;;;15.00;12.45;;;;;;;3.31;88.00;102094.94;4978459;28;20423;-81
2022/01/19 08:07:20;;;;;;;18.45;13.32;;;;;;;3.21;88.89;102091.13;4979517;28;20055;-81
2022/01/19 08:09:59;;;;;;;17.85;13.90;;;;;;;3.15;88.72;102057.81;4982391;28;20070;-82
2022/01/19 08:12:42;;;;;;;18.13;14.25;;;;;;;3.29;88.99;102083.84;4978420;28;20066;-82
2022/01/19 08:15:18;;;;;;;18.90;14.23;;;;;;;3.31;89.65;102071.66;4977714;28;20152;-80
2022/01/19 08:17:52;;;;;;;17.77;13.40;;;;;;;3.23;88.90;102066.88;4979292;28;20121;-81
2022/01/19 08:23:06;;;;;;;19.85;13.27;;;;;;;3.21;88.96;102045.41;4983462;28;20097;-81
2022/01/19 08:25:33;;;;;;;20.13;13.85;;;;;;;3.40;87.68;102071.22;4985274;28;20240;-80
2022/01/19 08:28:00;;;;;;;43.95;29.98;;;;;;;3.33;87.76;102075.84;4984997;28;20062;-83
2022/01/19 08:30:28;;;;;;;21.77;14.50;;;;;;;3.36;88.61;102069.69;4983363;28;20075;-82
2022/01/19 08:32:57;;;;;;;17.35;13.48;;;;;;;3.36;88.24;102080.03;4979312;28;20123;-80
2022/01/19 08:35:26;;;;;;;20.50;14.23;;;;;;;3.43;87.69;102083.16;4984789;28;20435;-81
2022/01/19 08:37:53;;;;;;;19.65;14.63;;;;;;;3.42;87.24;102094.41;4983411;28;20046;-79
2022/01/19 08:40:26;;;;;;;19.33;14.65;;;;;;;3.47;87.55;102072.59;4983399;28;20058;-81
2022/01/19 08:42:58;;;;;;;21.50;15.43;;;;;;;3.43;87.04;102086.59;4988341;28;20485;-81
2022/01/19 08:45:32;;;;;;;20.90;14.10;;;;;;;3.41;87.36;102082.41;4987584;28;20395;-80
2022/01/19 08:48:07;;;;;;;18.80;14.18;;;;;;;3.24;87.23;102049.59;4969363;28;20107;-78
2022/01/19 08:50:37;;;;;;;19.42;14.45;;;;;;;3.42;86.58;102078.91;4989008;28;20101;-82
2022/01/19 08:53:04;;;;;;;23.20;16.13;;;;;;;3.38;86.96;102057.50;4987191;28;20074;-81
2022/01/19 08:55:31;;;;;;;21.25;15.02;;;;;;;3.39;87.05;102059.19;4983944;28;20074;-81
2022/01/19 08:57:58;;;;;;;19.10;15.00;;;;;;;3.53;86.29;102072.28;4984043;28;20051;-82
2022/01/19 09:00:25;;;;;;;20.63;16.05;;;;;;;3.51;85.54;102079.28;4983270;28;20486;-80
2022/01/19 09:02:52;;;;;;;18.85;14.73;;;;;;;3.57;85.19;102081.59;4979989;28;20066;-80
2022/01/19 09:05:20;;;;;;;20.75;15.30;;;;;;;3.93;85.77;102085.81;4981869;28;20078;-80
2022/01/19 09:07:47;;;;;;;18.85;14.73;;;;;;;3.80;85.08;102080.41;4980473;28;20134;-80
2022/01/19 09:10:14;;;;;;;19.40;15.10;;;;;;;3.70;85.02;102073.22;4980389;28;20058;-79
2022/01/19 09:12:41;;;;;;;24.55;15.55;;;;;;;3.72;84.44;102071.38;4979275;28;20133;-81
2022/01/19 09:15:11;;;;;;;17.30;13.77;;;;;;;3.73;83.91;102063.53;4982687;28;20510;-81
2022/01/19 09:17:38;;;;;;;17.23;14.00;;;;;;;3.74;83.95;102064.38;4981734;28;20151;-79
2022/01/19 09:20:07;;;;;;;18.63;14.60;;;;;;;3.66;84.12;102057.84;4979695;28;20137;-80
2022/01/19 09:22:38;;;;;;;19.10;14.98;;;;;;;3.80;84.23;102051.09;4979457;28;20085;-79
2022/01/19 09:25:08;;;;;;;18.67;15.45;;;;;;;3.72;84.37;102045.50;4979303;28;20082;-78
2022/01/19 09:27:39;;;;;;;21.02;15.30;;;;;;;3.70;84.16;102045.56;4979656;28;20071;-81
2022/01/19 09:30:10;;;;;;;20.13;14.73;;;;;;;3.87;83.63;102037.78;4982599;28;20047;-82
2022/01/19 09:32:39;;;;;;;21.00;15.32;;;;;;;3.75;84.02;102033.25;4982988;28;20067;-82
2022/01/19 09:35:10;;;;;;;18.88;15.18;;;;;;;3.82;84.01;102026.81;4981310;28;20050;-82
2022/01/19 09:37:42;;;;;;;20.58;15.95;;;;;;;3.88;84.17;102036.00;4980984;28;20148;-81
2022/01/19 09:40:14;;;;;;;21.80;16.80;;;;;;;3.81;83.42;102003.59;4982797;28;20148;-83
2022/01/19 09:42:43;;;;;;;18.17;15.67;;;;;;;3.83;84.07;102012.09;4981441;28;20340;-80
2022/01/19 09:45:11;;;;;;;20.15;15.20;;;;;;;3.87;83.65;102019.63;4980280;28;20098;-83
2022/01/19 09:47:38;;;;;;;19.48;14.73;;;;;;;4.00;83.69;102025.88;4979357;28;20507;-81
2022/01/19 09:50:06;;;;;;;19.70;14.98;;;;;;;4.01;83.71;102021.53;4978719;28;20051;-80
2022/01/19 09:52:35;;;;;;;17.83;14.65;;;;;;;4.02;83.35;102024.94;4979380;28;20495;-80
2022/01/19 09:55:04;;;;;;;18.50;14.32;;;;;;;4.02;83.66;102017.19;4977259;28;20062;-79
2022/01/19 09:57:33;;;;;;;19.85;15.98;;;;;;;4.07;83.16;102013.44;4978720;28;20075;-79
2022/01/19 10:00:00;;;;;;;19.80;14.80;;;;;;;4.06;82.46;102009.16;4978890;28;20074;-81
2022/01/19 10:02:27;;;;;;;23.65;16.13;;;;;;;4.16;82.99;102002.59;4981012;28;20054;-80
2022/01/19 10:04:55;;;;;;;20.00;16.02;;;;;;;4.01;82.42;101995.63;4977734;28;20494;-81
2022/01/19 10:07:24;;;;;;;21.55;16.05;;;;;;;4.02;82.29;101992.13;4980833;28;20051;-80
2022/01/19 10:09:54;;;;;;;21.52;16.23;;;;;;;3.99;82.73;101993.13;4980533;28;20563;-79
2022/01/19 10:18:06;;;;;;;24.60;17.02;;;;;;;4.03;82.30;101995.53;4978519;28;20141;-80
2022/01/19 10:20:33;;;;;;;22.52;16.10;;;;;;;4.02;82.91;101991.28;4977650;28;20137;-79
2022/01/19 10:23:01;;;;;;;23.92;17.55;;;;;;;4.02;82.56;101988.69;4976922;28;20089;-80
2022/01/19 10:25:47;;;;;;;22.92;16.73;;;;;;;3.90;83.10;101980.63;4976485;28;20111;-80
2022/01/19 10:28:15;;;;;;;23.77;16.60;;;;;;;3.93;82.82;101961.50;4979193;28;20114;-82
2022/01/19 10:30:42;;;;;;;20.10;16.13;;;;;;;4.03;82.44;101964.47;4979607;28;20047;-81
2022/01/19 10:33:09;;;;;;;20.27;16.33;;;;;;;4.02;81.92;101962.78;4978886;28;20046;-80
2022/01/19 10:35:37;;;;;;;22.42;15.68;;;;;;;4.03;82.51;101962.72;4976108;28;20514;-80
2022/01/19 10:38:14;;;;;;;22.27;16.00;;;;;;;4.09;81.96;101953.78;4981071;28;20476;-79
2022/01/19 10:40:43;;;;;;;21.50;16.45;;;;;;;3.99;82.04;101945.66;4982317;28;20055;-79
2022/01/19 10:43:29;;;;;;;20.35;15.48;;;;;;;4.08;81.71;101939.16;4984463;28;20051;-79
2022/01/19 10:45:57;;;;;;;20.80;16.55;;;;;;;4.18;81.56;101940.34;4983962;28;20085;-80
2022/01/19 10:48:33;;;;;;;24.15;17.02;;;;;;;4.15;81.77;101930.97;4983324;28;20070;-80
2022/01/19 10:51:12;;;;;;;21.63;17.08;;;;;;;4.19;81.49;101922.13;4984832;28;20134;-81
2022/01/19 10:53:40;;;;;;;27.35;17.05;;;;;;;4.18;82.36;101917.03;4984748;28;20058;-80
2022/01/19 10:56:24;;;;;;;21.75;16.52;;;;;;;4.38;81.26;101916.75;4982364;28;20065;-80
2022/01/19 10:59:00;;;;;;;21.63;16.70;;;;;;;4.30;81.31;101914.56;4982634;28;20141;-79
2022/01/19 11:01:34;;;;;;;21.33;16.92;;;;;;;4.34;81.46;101921.25;4984404;28;20046;-78
2022/01/19 11:04:25;;;;;;;24.38;17.48;;;;;;;4.43;80.70;101912.16;4987346;28;20046;-80
2022/01/19 11:06:55;;;;;;;22.67;16.85;;;;;;;4.41;80.84;101913.97;4982379;28;20051;-80
2022/01/19 11:09:25;;;;;;;23.85;17.17;;;;;;;4.43;80.86;101906.13;4981461;28;20082;-80
2022/01/19 11:11:53;;;;;;;22.15;16.90;;;;;;;4.41;80.25;101895.00;4982325;28;20141;-79
2022/01/19 11:14:26;;;;;;;21.58;15.88;;;;;;;4.40;80.35;101893.34;4984975;28;20088;-82
2022/01/19 11:16:53;;;;;;;20.88;16.35;;;;;;;4.44;80.00;101880.13;4985202;28;20070;-80
2022/01/19 11:19:20;;;;;;;19.70;15.90;;;;;;;4.40;79.94;101886.41;4982300;28;20431;-78
2022/01/19 11:22:06;;;;;;;21.38;17.15;;;;;;;4.36;80.18;101873.69;4983775;28;20134;-79
2022/01/19 11:24:41;;;;;;;20.15;15.90;;;;;;;4.41;80.27;101879.47;4986303;28;20149;-81
2022/01/19 11:27:09;;;;;;;21.02;16.27;;;;;;;4.47;80.16;101877.38;4983878;28;20085;-81
2022/01/19 11:29:40;;;;;;;22.33;16.80;;;;;;;4.50;80.13;101869.41;4981641;28;20051;-80
2022/01/19 11:32:15;;;;;;;20.00;15.65;;;;;;;4.55;79.35;101863.97;4982317;28;20499;-79
2022/01/19 11:34:47;;;;;;;20.80;16.55;;;;;;;4.45;79.39;101860.22;4985652;28;20051;-82
2022/01/19 11:37:15;;;;;;;22.20;17.05;;;;;;;4.52;80.36;101858.97;4987260;28;20112;-79
2022/01/19 11:40:07;;;;;;;23.05;16.63;;;;;;;4.61;79.75;101832.50;4984789;28;20093;-80
2022/01/19 11:42:33;;;;;;;21.98;16.73;;;;;;;4.52;80.42;101839.06;4980007;28;20236;-79
2022/01/19 11:45:03;;;;;;;22.38;16.63;;;;;;;4.40;79.63;101841.50;4980402;28;20058;-80
2022/01/19 11:47:31;;;;;;;23.92;17.15;;;;;;;4.56;78.91;101834.53;4981022;28;20061;-80
2022/01/19 11:50:00;;;;;;;21.48;17.52;;;;;;;4.57;79.43;101820.66;4980494;28;20061;-80
2022/01/19 11:52:52;;;;;;;20.40;16.35;;;;;;;4.59;78.90;101827.41;4980254;28;20134;-78
2022/01/19 11:55:20;;;;;;;22.67;16.35;;;;;;;4.53;79.18;101824.34;4980828;28;20058;-80
2022/01/19 11:57:49;;;;;;;21.08;15.50;;;;;;;4.53;78.05;101803.59;4984922;28;20074;-83
2022/01/19 12:00:21;;;;;;;20.80;15.20;;;;;;;4.51;79.44;101808.88;4989491;28;20079;-81
2022/01/19 12:02:50;;;;;;;19.58;15.60;;;;;;;4.51;79.04;101808.88;4984613;28;20074;-80
2022/01/19 12:05:39;;;;;;;21.17;17.00;;;;;;;4.51;78.52;101795.91;4988895;28;20416;-82
2022/01/19 12:08:21;;;;;;;20.60;15.65;;;;;;;4.49;78.69;101791.75;4977056;28;20089;-80
2022/01/19 12:10:50;;;;;;;19.43;15.50;;;;;;;4.56;79.31;101790.47;4984599;28;20066;-81
2022/01/19 12:13:42;;;;;;;19.55;15.75;;;;;;;4.51;79.30;101779.53;4984339;28;20051;-81
2022/01/19 12:16:26;;;;;;;19.98;15.85;;;;;;;4.44;78.98;101770.44;4987158;28;20051;-81
2022/01/19 12:18:54;;;;;;;20.33;16.00;;;;;;;4.39;79.85;101769.88;4984498;28;20047;-81
2022/01/19 12:21:45;;;;;;;22.45;17.13;;;;;;;4.40;79.19;101764.59;4986024;28;20430;-82
2022/01/19 12:24:22;;;;;;;21.02;16.55;;;;;;;4.42;78.93;101777.47;4983948;28;20086;-81
2022/01/19 12:26:59;;;;;;;21.65;15.35;;;;;;;4.60;78.91;101771.22;4983057;28;20057;-81
2022/01/19 12:29:46;;;;;;;22.05;16.58;;;;;;;4.53;78.64;101762.97;4982889;28;20082;-81
2022/01/19 12:32:45;;;;;;;22.08;16.08;;;;;;;4.44;79.56;101760.06;4983026;28;20511;-83
2022/01/19 12:35:35;;;;;;;21.92;16.77;;;;;;;4.48;79.60;101754.63;4975987;28;20129;-82
2022/01/19 12:38:07;;;;;;;23.35;17.02;;;;;;;4.46;80.04;101742.69;4980416;28;20057;-80
2022/01/19 12:40:57;;;;;;;23.60;17.73;;;;;;;4.46;79.91;101747.84;4981703;28;20054;-81
2022/01/19 12:43:38;;;;;;;24.20;16.83;;;;;;;4.41;80.67;101748.13;4982246;28;20057;-81
2022/01/19 12:46:10;;;;;;;24.73;17.77;;;;;;;4.27;80.23;101748.91;4982531;28;20055;-82
2022/01/19 12:48:48;;;;;;;24.70;18.15;;;;;;;4.39;79.86;101757.75;4981702;28;20058;-82
2022/01/19 12:51:40;;;;;;;26.05;17.13;;;;;;;4.37;80.39;101750.97;4982500;28;20466;-80
2022/01/19 12:54:09;;;;;;;24.92;17.55;;;;;;;4.41;80.16;101748.13;4982194;28;20058;-80
2022/01/19 12:56:35;;;;;;;25.85;18.67;;;;;;;4.20;80.61;101745.03;4981502;28;20525;-82
2022/01/19 12:59:07;;;;;;;27.63;18.70;;;;;;;4.21;81.26;101731.16;4982238;28;20487;-83
2022/01/19 13:01:34;;;;;;;32.17;19.50;;;;;;;4.25;80.95;101724.84;4981436;28;20062;-82
2022/01/19 13:04:03;;;;;;;26.05;18.77;;;;;;;4.32;80.29;101722.75;4982878;28;20137;-81
2022/01/19 13:06:32;;;;;;;28.95;19.08;;;;;;;4.24;81.17;101738.75;4981750;28;20098;-82
2022/01/19 13:09:09;;;;;;;26.67;19.65;;;;;;;4.20;80.94;101732.06;4981940;28;20060;-82
2022/01/19 13:11:39;;;;;;;29.80;19.80;;;;;;;4.22;81.31;101730.25;4982146;28;20047;-82
2022/01/19 13:14:10;;;;;;;34.65;20.98;;;;;;;4.19;80.55;101725.22;4981669;28;20130;-82
2022/01/19 13:16:41;;;;;;;29.08;19.67;;;;;;;4.17;80.57;101727.06;4980793;28;20085;-83
2022/01/19 13:19:13;;;;;;;27.42;18.85;;;;;;;4.15;80.43;101723.72;4981279;28;20050;-82